ADDS METAR Data INFO
IDs: Format: Raw Decoded Include TAF

Data at: 0918 UTC 13 Dec 2017

KHUF 130853Z 22004KT 10SM BKN090 M05/M13 A2994 RMK AO2 SLP146 T10501133 58021
KHUF 130753Z 21005KT 10SM OVC100 M05/M13 A2996 RMK AO2 SLP154 T10501128
KHUF 130653Z 21006KT 10SM OVC050 M05/M13 A2999 RMK AO2 SLP163 T10501128
KHUF 130553Z 22003KT 10SM FEW048 BKN065 OVC080 M06/M12 A3001 RMK AO2 SLP168 T10611122 11044 21072 58019
KHUF 130453Z 24004KT 10SM CLR M07/M12 A3004 RMK AO2 SLP179 T10671122 400221072
KHUF 130353Z 27004KT 10SM BKN055 BKN070 M06/M13 A3005 RMK AO2 SLP183 T10561133
KHUF 130253Z 27004KT 10SM CLR M07/M13 A3006 RMK AO2 SLP188 T10671133 58005
KHUF 130153Z 27004KT 10SM CLR M06/M14 A3007 RMK AO2 SLP189 T10611144
KHUF 130053Z 29004KT 10SM CLR M05/M16 A3007 RMK AO2 SLP191 T10501156
KHUF 122353Z 30004KT 10SM CLR M04/M16 A3008 RMK AO2 SLP191 T10441156 11017 21044 51003
KHUF 122253Z 31008KT 10SM CLR M03/M16 A3007 RMK AO2 SLP189 T10331156
KHUF 122153Z 32009KT 10SM CLR M03/M15 A3008 RMK AO2 SLP192 T10281150
KHUF 122053Z 32016G22KT 10SM CLR M02/M14 A3007 RMK AO2 SLP187 T10221144 56013
KHUF 121953Z 30016G23KT 10SM CLR M02/M14 A3007 RMK AO2 SLP188 T10221139
KHUF 121853Z 33014G22KT 10SM CLR M02/M13 A3009 RMK AO2 SLP194 T10221133
KHUF 121753Z 30013G20KT 10SM FEW030 M03/M13 A3011 RMK AO2 SLP200 T10281133 11017 21044 58002
KHUF 121653Z 30015G26KT 10SM CLR M04/M13 A3012 RMK AO2 PK WND 32026/1649 SLP203 T10391128
KHUF 121553Z 32014G20KT 10SM SCT030 M04/M12 A3013 RMK AO2 SLP207 T10391117
KHUF 121453Z 33017G24KT 10SM CLR M04/M12 A3011 RMK AO2 SLP202 T10441117 51030
KHUF 121353Z 32013G23KT 10SM CLR M04/M12 A3010 RMK AO2 SLP197 T10441122
KHUF 121253Z 32014KT 10SM FEW035 M04/M12 A3007 RMK AO2 PK WND 33027/1209 SLP186 T10391122
KHUF 121153Z 33016G29KT 10SM FEW047 M02/M09 A3002 RMK AO2 PK WND 33029/1102 SNB07E13 SLP169 P0000 60000 T10171094 10022 21017 53019
KHUF 121053Z 32018G24KT 9SM OVC046 00/M08 A2999 RMK AO2 PK WND 30030/1037 SNB39E49 SLP158 P0000 T00001078
KHUF 120953Z 33012G21KT 10SM OVC031 01/M07 A2997 RMK AO2 SLP153 T00061067
KHUF 120853Z 33015G24KT 7SM OVC019 01/M03 A2996 RMK AO2 PK WND 32028/0839 SLP149 T00061028 53020
KHUF 120753Z 31011G21KT 10SM OVC017 01/M03 A2994 RMK AO2 SLP141 T00111028
KHUF 120653Z 32015G25KT 10SM OVC017 02/M02 A2992 RMK AO2 PK WND 32027/0632 SLP134 T00171022
KHUF 120553Z 32014G26KT 10SM OVC015 02/M02 A2990 RMK AO2 PK WND 31026/0548 SLP129 60000 T00221017 10078 20022 51030
KHUF 120453Z 31014G24KT 10SM OVC013 02/M01 A2988 RMK AO2 PRESRR SLP121 T00221011 401001072
KHUF 120443Z 30015G23KT 10SM OVC014 03/M01 A2987 RMK AO2 T00281011
KHUF 120419Z 30014G21KT 10SM BKN018 BKN037 OVC048 03/M01 A2985 RMK AO2 T00281011
KHUF 120353Z 30015G23KT 10SM OVC035 03/M02 A2984 RMK AO2 SLP107 T00331017
KHUF 120253Z 30014G20KT 10SM OVC055 05/M03 A2981 RMK AO2 SLP099 60000 T00501033 51023
KHUF 120153Z 28014G23KT 10SM BKN043 06/M03 A2979 RMK AO2 PK WND 28029/0100 RAE11 SLP093 P0000 T00561033
KHUF 120053Z 30022G29KT 10SM -RA BKN042 OVC050 07/M03 A2976 RMK AO2 PK WND 30029/0051 RAB53 SLP082 P0000 T00721028
KHUF 112353Z 28013G18KT 10SM CLR 08/M05 A2974 RMK AO2 PK WND 28028/2324 SLP075 T00781050 10100 20078 53020
KHUF 112253Z 28018G26KT 4SM HZ CLR 09/M05 A2971 RMK AO2 PK WND 28026/2252 SLP063 T00941050
KHUF 112241Z 28012G22KT 3SM HZ CLR 09/M04 A2970 RMK AO2 T00941044
KHUF 112234Z 28014G22KT 2 1/2SM HZ CLR 09/M03 A2969 RMK AO2 VIS 3/4V5 T00941033
KHUF 112223Z 27008KT 1/2SM R05/1200VP6000FT HZ VV001 08/M01 A2969 RMK AO2 T00831011
KHUF 112221Z 26008KT 1/2SM R05/1200VP6000FT HZ VV001 08/M01 A2969 RMK AO2 T00831011
KHUF 112153Z 21008KT 10SM CLR 09/M01 A2967 RMK AO2 SLP051 T00941011